createdAt,value
2023-02-05T00:00:24.310Z,5.23
2023-02-05T00:05:29.768Z,5.03
2023-02-05T00:10:35.595Z,4.67
2023-02-05T00:15:44.239Z,4.43
2023-02-05T00:20:49.621Z,4.63
2023-02-05T00:25:55.148Z,4.80
2023-02-05T00:31:01.642Z,4.37
2023-02-05T00:36:08.402Z,4.70
2023-02-05T00:41:14.541Z,4.40
2023-02-05T00:46:20.146Z,4.27
2023-02-05T00:51:25.951Z,4.50
2023-02-05T00:56:31.329Z,3.93
2023-02-05T01:01:36.970Z,4.37
2023-02-05T01:06:42.538Z,4.30
2023-02-05T01:11:47.975Z,3.70
2023-02-05T01:16:53.397Z,3.77
2023-02-05T01:21:59.002Z,3.93
2023-02-05T01:27:04.664Z,4.27
2023-02-05T01:32:10.538Z,4.30
2023-02-05T01:37:15.917Z,3.90
2023-02-05T01:42:24.380Z,3.67
2023-02-05T01:47:29.807Z,3.63
2023-02-05T01:52:35.795Z,3.70
2023-02-05T01:57:41.884Z,3.30
2023-02-05T02:02:48.020Z,3.17
2023-02-05T02:07:53.530Z,4.70
2023-02-05T02:12:59.555Z,2.90
2023-02-05T02:18:24.744Z,2.80
2023-02-05T02:23:48.095Z,2.80
2023-02-05T02:28:57.594Z,3.27
2023-02-05T02:34:08.709Z,3.00
2023-02-05T02:39:25.949Z,2.73
2023-02-05T02:44:40.475Z,2.90
2023-02-05T02:49:54.870Z,3.27
2023-02-05T02:55:04.848Z,3.20
2023-02-05T03:00:14.469Z,3.40
2023-02-05T03:05:23.397Z,3.37
2023-02-05T03:10:44.624Z,2.40
2023-02-05T03:15:52.348Z,2.80
2023-02-05T03:21:02.606Z,2.53
2023-02-05T03:26:29.984Z,2.20
2023-02-05T03:31:58.062Z,3.07
2023-02-05T03:37:18.614Z,2.40
2023-02-05T03:42:43.662Z,2.30
2023-02-05T03:48:17.873Z,2.70
2023-02-05T03:53:26.885Z,2.33
2023-02-05T03:58:44.055Z,3.90
2023-02-05T04:03:50.128Z,1.93
2023-02-05T04:08:56.481Z,2.60
2023-02-05T04:14:03.046Z,2.07
2023-02-05T04:19:09.061Z,2.10
2023-02-05T04:24:14.781Z,2.13
2023-02-05T04:29:21.122Z,2.10
2023-02-05T04:34:28.569Z,1.97
2023-02-05T04:39:34.808Z,1.90
2023-02-05T04:44:40.307Z,1.90
2023-02-05T04:49:46.444Z,2.10
2023-02-05T04:54:52.156Z,2.00
2023-02-05T04:59:57.635Z,1.70
2023-02-05T05:05:03.161Z,1.90
2023-02-05T05:10:09.674Z,1.70
2023-02-05T05:15:15.126Z,1.60
2023-02-05T05:20:22.914Z,1.87
2023-02-05T05:25:28.445Z,1.60
2023-02-05T05:30:34.059Z,1.60
2023-02-05T05:35:39.754Z,1.47
2023-02-05T05:41:02.943Z,1.50
2023-02-05T05:46:10.933Z,1.77
2023-02-05T05:51:16.522Z,1.97
2023-02-05T05:56:22.340Z,1.50
2023-02-05T06:01:27.796Z,1.70
2023-02-05T06:06:33.553Z,1.00
2023-02-05T06:11:39.076Z,1.40
2023-02-05T06:16:44.553Z,1.33
2023-02-05T06:21:50.112Z,1.20
2023-02-05T06:26:55.510Z,1.17
2023-02-05T06:32:01.134Z,1.17
2023-02-05T06:37:07.491Z,1.07
2023-02-05T06:42:13.041Z,1.10
2023-02-05T06:47:18.557Z,1.00
2023-02-05T06:52:24.082Z,1.10
2023-02-05T06:57:31.615Z,1.03
2023-02-05T07:02:39.272Z,1.33
2023-02-05T07:07:44.834Z,1.80
2023-02-05T07:12:50.291Z,1.60
2023-02-05T07:17:55.888Z,1.70
2023-02-05T07:23:01.562Z,1.40
2023-02-05T07:28:08.845Z,1.40
2023-02-05T07:33:14.597Z,1.33
2023-02-05T07:38:20.184Z,1.20
2023-02-05T07:43:25.973Z,1.07
2023-02-05T07:48:32.400Z,1.10
2023-02-05T07:53:37.806Z,1.23
2023-02-05T07:58:44.100Z,1.27
2023-02-05T08:03:49.609Z,1.40
2023-02-05T08:08:56.214Z,1.60
2023-02-05T08:14:02.757Z,1.30
2023-02-05T08:19:12.737Z,1.50
2023-02-05T08:24:17.700Z,1.20
2023-02-05T08:29:23.220Z,1.07
2023-02-05T08:34:29.353Z,1.10
2023-02-05T08:39:34.939Z,1.33
2023-02-05T08:44:40.575Z,1.10
2023-02-05T08:49:46.190Z,1.10
2023-02-05T08:54:51.589Z,1.27
2023-02-05T08:59:57.500Z,1.90
2023-02-05T09:05:09.009Z,2.75
2023-02-05T09:10:13.318Z,4.13
2023-02-05T09:15:18.926Z,3.93
2023-02-05T09:20:24.354Z,3.77
2023-02-05T09:25:32.614Z,3.83
2023-02-05T09:30:43.664Z,3.90
2023-02-05T09:35:49.074Z,7.60
2023-02-05T09:41:17.167Z,14.37
2023-02-05T09:46:37.387Z,24.07
2023-02-05T09:51:48.885Z,25.63
2023-02-05T09:56:57.138Z,29.70
2023-02-05T10:02:05.969Z,27.40
2023-02-05T10:07:27.013Z,25.93
2023-02-05T10:13:10.995Z,22.57
2023-02-05T10:18:38.747Z,27.57
2023-02-05T10:23:55.994Z,22.77
2023-02-05T10:29:19.804Z,18.03
2023-02-05T10:34:28.338Z,16.43
2023-02-05T10:39:35.050Z,12.43
2023-02-05T10:44:45.978Z,14.03
2023-02-05T10:50:00.928Z,6.33
2023-02-05T10:55:07.092Z,2.60
2023-02-05T11:00:23.823Z,3.20
2023-02-05T11:05:41.105Z,2.83
2023-02-05T11:10:49.613Z,2.37
2023-02-05T11:15:58.258Z,2.33
2023-02-05T11:21:08.313Z,1.83
2023-02-05T11:26:23.187Z,1.70
2023-02-05T11:31:32.225Z,2.23
2023-02-05T11:36:40.430Z,2.33
2023-02-05T11:41:48.869Z,1.80
2023-02-05T11:47:00.332Z,2.17
2023-02-05T11:52:14.167Z,1.53
2023-02-05T11:57:22.802Z,2.37
2023-02-05T12:02:31.308Z,2.30
2023-02-05T12:07:39.935Z,2.23
2023-02-05T12:13:00.200Z,2.60
2023-02-05T12:18:08.643Z,2.60
2023-02-05T12:23:44.304Z,2.77
2023-02-05T12:29:04.881Z,2.27
2023-02-05T12:34:36.195Z,3.10
2023-02-05T12:39:56.665Z,3.67
2023-02-05T12:45:19.920Z,3.73
2023-02-05T12:50:38.204Z,3.70
2023-02-05T12:56:12.154Z,4.17
2023-02-05T13:01:29.989Z,2.37
2023-02-05T13:06:41.124Z,2.90
2023-02-05T13:11:49.557Z,2.63
2023-02-05T13:17:10.161Z,2.70
2023-02-05T13:22:54.710Z,3.13
2023-02-05T13:28:21.194Z,3.80
2023-02-05T13:33:28.011Z,3.27
2023-02-05T13:38:46.422Z,2.63
2023-02-05T13:44:14.326Z,2.60
2023-02-05T13:49:48.542Z,2.47
2023-02-05T13:55:06.052Z,3.03
2023-02-05T14:00:14.784Z,2.60
2023-02-05T14:05:32.647Z,2.63
2023-02-05T14:10:45.009Z,2.90
2023-02-05T14:15:50.840Z,2.20
2023-02-05T14:20:56.423Z,1.97
2023-02-05T14:26:09.526Z,2.10
2023-02-05T14:31:48.150Z,2.63
2023-02-05T14:36:55.256Z,2.50
2023-02-05T14:42:06.189Z,2.30
2023-02-05T14:47:23.068Z,2.67
2023-02-05T14:52:40.700Z,2.43
2023-02-05T14:57:54.885Z,2.23
2023-02-05T15:03:07.122Z,2.50
2023-02-05T15:08:40.444Z,3.40
2023-02-05T15:14:05.371Z,2.53
2023-02-05T15:19:12.802Z,2.77
2023-02-05T15:24:23.881Z,2.97
2023-02-05T15:29:35.748Z,2.97
2023-02-05T15:34:56.460Z,3.50
2023-02-05T15:40:08.483Z,3.47
2023-02-05T15:45:28.787Z,2.90
2023-02-05T15:50:37.609Z,3.33
2023-02-05T15:55:43.137Z,3.03
2023-02-05T16:00:50.018Z,3.30
2023-02-05T16:05:55.840Z,2.90
2023-02-05T16:11:06.369Z,4.35
2023-02-05T16:16:24.239Z,3.50
2023-02-05T16:21:34.989Z,3.57
2023-02-05T16:26:49.248Z,3.33
2023-02-05T16:32:00.810Z,3.60
2023-02-05T16:37:10.287Z,2.80
2023-02-05T16:42:43.468Z,3.43
2023-02-05T16:48:26.827Z,2.80
2023-02-05T16:53:34.932Z,2.90
2023-02-05T16:58:48.957Z,4.20
2023-02-05T17:03:55.444Z,2.67
2023-02-05T17:09:01.060Z,4.37
2023-02-05T17:14:35.462Z,2.77
2023-02-05T17:19:41.204Z,3.20
2023-02-05T17:24:49.555Z,3.57
2023-02-05T17:29:55.467Z,3.07
2023-02-05T17:35:00.931Z,3.37
2023-02-05T17:40:07.393Z,3.47
2023-02-05T17:45:18.802Z,4.62
2023-02-05T17:50:24.407Z,3.37
2023-02-05T17:55:30.694Z,3.37
2023-02-05T18:00:36.486Z,3.30
2023-02-05T18:05:42.185Z,2.83
2023-02-05T18:10:48.737Z,3.23
2023-02-05T18:15:55.767Z,4.10
2023-02-05T18:21:01.499Z,3.10
2023-02-05T18:26:08.503Z,3.33
2023-02-05T18:31:15.272Z,3.27
2023-02-05T18:36:20.801Z,3.63
2023-02-05T18:41:28.110Z,3.63
2023-02-05T18:46:35.093Z,3.57
2023-02-05T18:51:40.558Z,3.60
2023-02-05T18:56:46.100Z,3.33
2023-02-05T19:01:52.379Z,3.80
2023-02-05T19:06:58.271Z,4.17
2023-02-05T19:12:03.899Z,3.23
2023-02-05T19:17:09.428Z,4.33
2023-02-05T19:22:14.823Z,3.93
2023-02-05T19:27:20.273Z,4.00
2023-02-05T19:32:25.843Z,3.87
2023-02-05T19:37:32.086Z,3.60
2023-02-05T19:42:37.471Z,3.77
2023-02-05T19:47:43.300Z,3.80
2023-02-05T19:52:49.282Z,3.80
2023-02-05T19:57:54.746Z,3.27
2023-02-05T20:03:00.747Z,3.30
2023-02-05T20:08:06.648Z,3.43
2023-02-05T20:13:12.052Z,4.07
2023-02-05T20:18:18.605Z,3.40
2023-02-05T20:23:25.663Z,3.93
2023-02-05T20:28:33.143Z,4.00
2023-02-05T20:33:39.649Z,3.20
2023-02-05T20:38:45.116Z,3.17
2023-02-05T20:43:50.943Z,3.97
2023-02-05T20:48:56.476Z,4.10
2023-02-05T20:54:02.287Z,3.60
2023-02-05T20:59:09.503Z,3.57
2023-02-05T21:04:17.931Z,4.20
2023-02-05T21:09:24.012Z,3.93
2023-02-05T21:14:29.540Z,3.80
2023-02-05T21:19:35.086Z,4.07
2023-02-05T21:24:40.471Z,4.10
2023-02-05T21:29:46.084Z,3.63
2023-02-05T21:34:52.278Z,3.80
2023-02-05T21:40:08.842Z,3.50
2023-02-05T21:45:06.739Z,4.03
2023-02-05T21:50:12.290Z,3.30
2023-02-05T21:55:17.878Z,3.93
2023-02-05T22:00:23.432Z,3.97
2023-02-05T22:05:28.958Z,3.97
2023-02-05T22:10:34.875Z,3.90
2023-02-05T22:15:42.063Z,4.13
2023-02-05T22:20:47.438Z,3.90
2023-02-05T22:25:52.892Z,3.80
2023-02-05T22:31:07.669Z,3.73
2023-02-05T22:36:15.546Z,3.87
2023-02-05T22:41:29.245Z,3.60
2023-02-05T22:46:39.691Z,3.90
2023-02-05T22:51:45.697Z,4.77
2023-02-05T22:56:53.587Z,4.80
2023-02-05T23:01:59.200Z,4.80
2023-02-05T23:07:04.749Z,3.97
2023-02-05T23:12:11.491Z,3.73
2023-02-05T23:17:16.960Z,3.90
2023-02-05T23:22:22.402Z,3.70
2023-02-05T23:27:29.089Z,3.83
2023-02-05T23:32:34.556Z,4.90
2023-02-05T23:37:39.934Z,4.77
2023-02-05T23:42:45.395Z,3.33
2023-02-05T23:47:50.866Z,4.47
2023-02-05T23:52:57.276Z,4.80
2023-02-05T23:58:02.657Z,5.03
